Time;durP1;ratioP1;P1;durP2;ratioP2;P2;SDS_P1;SDS_P2;PMS_P1;PMS_P2;Temp;Humidity;BMP_temperature;BMP_pressure;BME280_temperature;BME280_humidity;BME280_pressure;Samples;Min_cycle;Max_cycle;Signal;HPM_P1;HPM_P2
2022/12/28 00:21:16;;;;;;;66.95;40.42;;;8.30;99.90;;;;;;5344409;23;20086;-93
2022/12/28 00:23:46;;;;;;;49.75;32.33;;;8.30;99.90;;;;;;4905644;29;20079;-93
2022/12/28 00:31:44;;;;;;;59.70;36.13;;;8.20;99.90;;;;;;4951213;23;20056;-92
2022/12/28 00:57:32;;;;;;;;;;;;;;;;;;;;;
2022/12/28 01:18:18;;;;;;;;;;;;;;;;;;;;;
2022/12/28 01:22:01;;;;;;;;;;;;;;;;;;;;;
2022/12/28 01:25:44;;;;;;;;;;;;;;;;;;;;;
2022/12/28 01:46:54;;;;;;;;;;;;;;;;;;;;;
2022/12/28 02:21:11;;;;;;;58.70;35.85;;;7.00;99.90;;;;;;6340392;22;20023;-93
2022/12/28 02:32:11;;;;;;;57.85;35.38;;;7.10;99.90;;;;;;6031170;23;20018;-93
2022/12/28 02:39:55;;;;;;;;;;;;;;;;;;;;;
2022/12/28 02:43:18;;;;;;;113.03;34.00;;;7.30;99.90;;;;;;5866858;24;20050;-94
2022/12/28 02:53:56;;;;;;;;;;;;;;;;;;;;;
2022/12/28 03:45:09;;;;;;;;;;;;;;;;;;;;;
2022/12/28 04:02:25;;;;;;;102.43;34.50;;;7.30;99.90;;;;;;6110650;23;20032;-93
2022/12/28 04:10:18;;;;;;;;;;;;;;;;;;;;;
2022/12/28 16:42:28;;;;;;;62.90;39.88;;;12.20;99.90;;;;;;6309728;22;20027;-91
2022/12/28 16:44:55;;;;;;;78.90;45.85;;;12.20;99.90;;;;;;6310460;22;20436;-91
2022/12/28 16:47:22;;;;;;;76.57;44.25;;;12.30;99.90;;;;;;6312629;22;20002;-90
2022/12/28 16:49:49;;;;;;;75.72;42.33;;;12.40;99.90;;;;;;6313991;22;20404;-91
2022/12/28 16:52:15;;;;;;;67.78;42.55;;;12.40;99.90;;;;;;6312897;22;20003;-90
2022/12/28 16:54:42;;;;;;;70.95;40.83;;;12.50;99.90;;;;;;6313719;22;20010;-91
2022/12/28 16:57:41;;;;;;;73.47;43.25;;;12.50;99.90;;;;;;6314659;22;20007;-92
2022/12/28 17:00:27;;;;;;;64.75;41.13;;;12.60;99.90;;;;;;6298477;22;20014;-93
2022/12/28 17:02:56;;;;;;;55.65;36.13;;;12.60;99.90;;;;;;6315730;22;19998;-92
2022/12/28 17:05:26;;;;;;;63.25;37.00;;;12.60;99.90;;;;;;6315615;22;20003;-92
2022/12/28 17:08:05;;;;;;;61.30;39.60;;;12.60;99.90;;;;;;6314479;22;20007;-92
2022/12/28 17:10:39;;;;;;;62.05;38.22;;;12.60;99.90;;;;;;6314221;22;20017;-92
2022/12/28 17:13:12;;;;;;;60.78;37.97;;;12.70;99.90;;;;;;6314302;22;20493;-91
2022/12/28 17:15:41;;;;;;;77.20;46.88;;;12.70;99.90;;;;;;6315863;22;20055;-93
2022/12/28 17:18:12;;;;;;;70.10;41.35;;;12.70;99.90;;;;;;6313989;22;20007;-92
2022/12/28 17:20:51;;;;;;;71.32;41.72;;;12.60;99.90;;;;;;6320467;22;20007;-91
2022/12/28 17:23:53;;;;;;;74.68;44.47;;;12.60;99.90;;;;;;6326947;22;20036;-91
2022/12/28 17:26:38;;;;;;;70.20;41.60;;;12.50;99.90;;;;;;6328990;22;20029;-93
2022/12/28 17:29:30;;;;;;;81.85;49.13;;;12.40;99.90;;;;;;6329193;22;20007;-93
2022/12/28 17:32:00;;;;;;;88.13;53.70;;;12.30;99.90;;;;;;6236587;23;20023;-91
2022/12/28 17:34:27;;;;;;;78.20;46.10;;;12.40;99.90;;;;;;6223043;23;20008;-90
2022/12/28 17:36:57;;;;;;;101.15;58.20;;;12.30;99.90;;;;;;6222107;23;20422;-90
2022/12/28 17:39:23;;;;;;;85.35;52.45;;;12.30;99.90;;;;;;6222038;23;20024;-92
2022/12/28 17:41:50;;;;;;;89.47;53.72;;;12.30;99.90;;;;;;6204484;23;20093;-89
2022/12/28 17:44:17;;;;;;;90.18;53.55;;;12.10;99.90;;;;;;6217557;23;20043;-92
2022/12/28 17:46:47;;;;;;;94.38;56.22;;;12.00;99.90;;;;;;6191533;23;20008;-90
2022/12/28 17:49:16;;;;;;;100.97;60.70;;;11.90;99.90;;;;;;6191703;23;20019;-91
2022/12/28 17:51:45;;;;;;;96.15;55.60;;;11.80;99.90;;;;;;6234467;22;20012;-91
2022/12/28 17:54:14;;;;;;;114.40;67.88;;;11.70;99.90;;;;;;6213797;23;20013;-92
2022/12/28 17:56:44;;;;;;;103.53;64.30;;;11.70;99.90;;;;;;6194136;23;20067;-93
2022/12/28 17:59:16;;;;;;;116.75;68.43;;;11.60;99.90;;;;;;6166691;23;20017;-91
2022/12/28 18:01:43;;;;;;;101.50;63.72;;;11.50;99.90;;;;;;6191457;23;20008;-91
2022/12/28 18:04:11;;;;;;;113.18;67.22;;;11.50;99.90;;;;;;6190610;23;20012;-90
2022/12/28 18:06:38;;;;;;;114.70;70.90;;;11.40;99.90;;;;;;6190956;23;20512;-93
2022/12/28 18:09:05;;;;;;;107.18;66.28;;;11.40;99.90;;;;;;6216588;22;20007;-91
2022/12/28 18:11:32;;;;;;;110.28;67.60;;;11.30;99.90;;;;;;6283143;22;20064;-91
2022/12/28 18:13:58;;;;;;;120.32;68.03;;;11.20;99.90;;;;;;6282940;22;20446;-90
2022/12/28 18:16:26;;;;;;;106.88;66.60;;;11.10;99.90;;;;;;6283470;22;19999;-91
2022/12/28 18:18:53;;;;;;;107.28;64.35;;;11.10;99.90;;;;;;6282967;22;20452;-92
2022/12/28 18:21:22;;;;;;;97.70;61.42;;;11.10;99.90;;;;;;6283724;22;20001;-91
2022/12/28 18:23:52;;;;;;;103.35;64.13;;;11.00;99.90;;;;;;6280288;22;20012;-92
2022/12/28 18:26:25;;;;;;;133.93;73.32;;;11.00;99.90;;;;;;6304043;22;20041;-91
2022/12/28 18:28:53;;;;;;;122.10;67.78;;;10.90;99.90;;;;;;6280035;22;20014;-92
2022/12/28 18:31:20;;;;;;;112.35;66.70;;;10.90;99.90;;;;;;6295291;22;20007;-92
2022/12/28 18:33:50;;;;;;;114.65;65.38;;;10.80;99.90;;;;;;6309136;22;20498;-92
2022/12/28 18:36:17;;;;;;;125.53;71.50;;;10.80;99.90;;;;;;6334998;22;20007;-91
2022/12/28 18:38:45;;;;;;;129.32;73.03;;;10.80;99.90;;;;;;6339719;22;20026;-90
2022/12/28 18:41:14;;;;;;;114.78;68.13;;;10.70;99.90;;;;;;6313939;22;20003;-91
2022/12/28 18:43:41;;;;;;;119.80;69.93;;;10.70;99.90;;;;;;6313464;22;20056;-92
2022/12/28 18:46:11;;;;;;;111.10;65.25;;;10.60;99.90;;;;;;6313793;22;20042;-89
2022/12/28 18:48:40;;;;;;;118.28;68.75;;;10.60;99.90;;;;;;6313712;22;20431;-90
2022/12/28 18:51:10;;;;;;;127.70;72.55;;;10.60;99.90;;;;;;6313857;22;20013;-91
2022/12/28 18:53:40;;;;;;;131.25;72.72;;;10.50;99.90;;;;;;6313606;22;20022;-91
2022/12/28 18:56:14;;;;;;;125.95;69.75;;;10.50;99.90;;;;;;6313333;22;20030;-93
2022/12/28 18:58:42;;;;;;;126.63;73.35;;;10.40;99.90;;;;;;6313207;22;20019;-93
2022/12/28 19:01:28;;;;;;;118.80;71.43;;;10.30;99.90;;;;;;6313521;22;20005;-90
2022/12/28 19:03:57;;;;;;;139.80;79.20;;;10.20;99.90;;;;;;6313975;22;20017;-90
2022/12/28 19:06:25;;;;;;;142.75;82.05;;;10.20;99.90;;;;;;6313558;22;19999;-91
2022/12/28 19:08:51;;;;;;;135.43;79.78;;;10.10;99.90;;;;;;6313368;22;20079;-90
2022/12/28 19:11:18;;;;;;;128.18;75.07;;;10.10;99.90;;;;;;6313545;22;20006;-90
2022/12/28 19:13:45;;;;;;;136.05;79.07;;;10.00;99.90;;;;;;6313375;22;20003;-90
2022/12/28 19:16:15;;;;;;;129.40;77.40;;;10.00;99.90;;;;;;6313333;22;20034;-91
2022/12/28 19:18:45;;;;;;;134.63;81.93;;;10.00;99.90;;;;;;6313574;22;20018;-90
2022/12/28 19:21:33;;;;;;;135.65;82.93;;;10.00;99.90;;;;;;6313796;22;20010;-92
2022/12/28 19:24:05;;;;;;;137.15;81.68;;;10.00;99.90;;;;;;6313416;22;20011;-89
2022/12/28 19:26:34;;;;;;;130.32;79.60;;;10.00;99.90;;;;;;6313482;22;20082;-89
2022/12/28 19:29:02;;;;;;;138.82;82.47;;;10.00;99.90;;;;;;6313640;22;20002;-92
2022/12/28 19:31:29;;;;;;;145.50;85.65;;;10.00;99.90;;;;;;6333572;22;19991;-90
2022/12/28 19:33:59;;;;;;;141.23;80.53;;;10.00;99.90;;;;;;6338017;22;19991;-90
2022/12/28 19:36:26;;;;;;;136.48;82.43;;;10.00;99.90;;;;;;6313182;22;20006;-93
2022/12/28 19:38:56;;;;;;;140.57;79.20;;;10.10;99.90;;;;;;6312737;22;20019;-90
2022/12/28 19:41:24;;;;;;;139.27;80.70;;;10.10;99.90;;;;;;6313318;22;19998;-91
2022/12/28 19:43:51;;;;;;;127.30;75.65;;;10.10;99.90;;;;;;6312841;22;20003;-91
2022/12/28 19:46:21;;;;;;;153.25;90.50;;;10.10;99.90;;;;;;6313130;22;20317;-90
2022/12/28 19:48:52;;;;;;;147.35;84.60;;;10.00;99.90;;;;;;6313028;22;20400;-89
2022/12/28 19:51:18;;;;;;;153.25;89.70;;;10.00;99.90;;;;;;6313015;22;20010;-94
2022/12/28 19:53:45;;;;;;;150.98;87.18;;;10.00;99.90;;;;;;6313852;22;20007;-91
2022/12/28 19:56:15;;;;;;;147.20;84.88;;;10.00;99.90;;;;;;6314103;22;20007;-90
2022/12/28 19:58:43;;;;;;;158.15;91.43;;;9.90;99.90;;;;;;6315382;22;20091;-90
2022/12/28 20:01:13;;;;;;;174.40;100.13;;;10.00;99.90;;;;;;6313526;22;20007;-92
2022/12/28 20:03:43;;;;;;;163.50;94.80;;;10.00;99.90;;;;;;6312839;22;20007;-90
2022/12/28 20:06:21;;;;;;;156.05;90.20;;;10.00;99.90;;;;;;6313110;22;20027;-92
2022/12/28 20:08:51;;;;;;;170.55;96.85;;;10.10;99.90;;;;;;6312901;22;20011;-91
2022/12/28 20:11:19;;;;;;;153.45;91.78;;;10.10;99.90;;;;;;6312705;22;20123;-91
2022/12/28 20:13:56;;;;;;;150.35;88.30;;;10.10;99.90;;;;;;6275883;22;20086;-91
2022/12/28 20:16:24;;;;;;;174.13;96.75;;;10.00;99.90;;;;;;6250557;22;20004;-90
2022/12/28 20:18:52;;;;;;;166.85;97.28;;;10.00;99.90;;;;;;6250487;22;20016;-91
2022/12/28 20:21:20;;;;;;;176.18;100.47;;;10.00;99.90;;;;;;6252024;22;20004;-91
2022/12/28 20:23:49;;;;;;;160.15;93.43;;;10.00;99.90;;;;;;6250192;22;20079;-92
2022/12/28 20:26:16;;;;;;;171.23;97.55;;;10.00;99.90;;;;;;6250507;22;20107;-91
2022/12/28 20:28:43;;;;;;;165.80;98.32;;;10.00;99.90;;;;;;6252213;22;20018;-91
2022/12/28 20:31:13;;;;;;;173.85;95.68;;;9.90;99.90;;;;;;6252002;22;20086;-90
2022/12/28 20:33:41;;;;;;;174.65;96.13;;;9.90;99.90;;;;;;6253059;22;20011;-92
2022/12/28 20:36:12;;;;;;;192.45;103.78;;;9.90;99.90;;;;;;6250014;22;20008;-90
2022/12/28 20:38:39;;;;;;;168.55;92.93;;;9.80;99.90;;;;;;6249773;22;20027;-92
2022/12/28 20:43:57;;;;;;;177.10;93.00;;;9.80;99.90;;;;;;6260899;22;20015;-93
2022/12/28 20:46:27;;;;;;;171.32;93.15;;;9.80;99.90;;;;;;6312848;22;20006;-90
2022/12/28 20:48:55;;;;;;;188.75;92.75;;;9.80;99.90;;;;;;6312487;22;20085;-90
2022/12/28 20:51:21;;;;;;;150.85;81.72;;;9.70;99.90;;;;;;6312495;22;20034;-90
2022/12/28 20:53:48;;;;;;;145.60;79.03;;;9.70;99.90;;;;;;6312662;22;20010;-93
2022/12/28 20:56:17;;;;;;;148.88;78.20;;;9.60;99.90;;;;;;6282484;22;20007;-92
2022/12/28 20:58:46;;;;;;;189.75;93.40;;;9.50;99.90;;;;;;6257936;22;20019;-90
2022/12/28 21:01:14;;;;;;;169.43;85.63;;;9.60;99.90;;;;;;6257886;22;19999;-90
2022/12/28 21:03:42;;;;;;;143.10;77.55;;;9.50;99.90;;;;;;6256892;22;20098;-90
2022/12/28 21:06:08;;;;;;;149.02;82.20;;;9.50;99.90;;;;;;6257200;22;20031;-89
2022/12/28 21:08:35;;;;;;;161.30;81.97;;;9.50;99.90;;;;;;6257585;22;20007;-92
2022/12/28 21:11:03;;;;;;;136.30;73.13;;;9.40;99.90;;;;;;6257403;22;20098;-92
2022/12/28 21:13:29;;;;;;;137.15;73.75;;;9.40;99.90;;;;;;6257187;22;20007;-92
2022/12/28 21:15:56;;;;;;;127.05;68.90;;;9.30;99.90;;;;;;6257170;22;20096;-91
2022/12/28 21:18:25;;;;;;;129.40;71.88;;;9.30;99.90;;;;;;6257079;22;20462;-91
2022/12/28 21:21:00;;;;;;;121.32;67.47;;;9.20;99.90;;;;;;6257070;22;20007;-91
2022/12/28 21:23:29;;;;;;;132.43;70.68;;;9.20;99.90;;;;;;6257028;22;20003;-93
2022/12/28 21:26:07;;;;;;;113.25;64.50;;;9.20;99.90;;;;;;6257421;22;20037;-92
2022/12/28 21:28:34;;;;;;;102.85;57.50;;;9.20;99.90;;;;;;6314246;22;20010;-90
2022/12/28 21:31:03;;;;;;;93.72;50.28;;;9.10;99.90;;;;;;6314556;22;20051;-91
2022/12/28 21:33:31;;;;;;;77.85;44.53;;;9.00;99.90;;;;;;6314295;22;20010;-90
2022/12/28 21:36:00;;;;;;;67.28;38.55;;;8.90;99.90;;;;;;6314508;22;20027;-90
2022/12/28 21:38:27;;;;;;;71.15;42.13;;;8.80;99.90;;;;;;6313597;22;20019;-91
2022/12/28 21:41:04;;;;;;;68.65;40.05;;;8.60;99.90;;;;;;6314196;22;20002;-93
2022/12/28 21:43:34;;;;;;;80.53;43.88;;;8.50;99.90;;;;;;6314490;22;20032;-90
2022/12/28 21:46:03;;;;;;;81.13;43.25;;;8.50;99.90;;;;;;6313632;22;20090;-91
2022/12/28 21:48:31;;;;;;;93.68;50.35;;;8.60;99.90;;;;;;6314207;22;20432;-91
2022/12/28 21:54:03;;;;;;;142.30;67.82;;;8.80;99.90;;;;;;6339566;22;20011;-88
2022/12/28 21:56:30;;;;;;;184.52;80.72;;;8.90;99.90;;;;;;6314185;22;20003;-92
2022/12/28 21:58:58;;;;;;;210.30;91.80;;;9.10;99.90;;;;;;6313951;22;20017;-92
2022/12/28 22:07:02;;;;;;;219.35;101.95;;;9.40;99.90;;;;;;6339416;22;20031;-93
2022/12/28 22:18:17;;;;;;;275.58;115.15;;;9.60;99.90;;;;;;6339983;22;20038;-91
2022/12/28 22:20:44;;;;;;;259.90;110.97;;;9.70;99.90;;;;;;6314063;22;20002;-92
2022/12/28 22:23:14;;;;;;;239.50;103.68;;;9.70;99.90;;;;;;6314965;22;20102;-92
2022/12/28 22:25:41;;;;;;;258.55;107.07;;;9.60;99.90;;;;;;6314123;22;20013;-90
2022/12/28 22:28:08;;;;;;;230.95;94.80;;;9.60;99.90;;;;;;6314047;22;20094;-91
2022/12/28 22:30:35;;;;;;;340.90;106.90;;;9.60;99.90;;;;;;6313840;22;20007;-91
2022/12/28 22:33:02;;;;;;;275.95;94.63;;;9.60;99.90;;;;;;6314390;22;20007;-92
2022/12/28 22:35:29;;;;;;;342.27;106.32;;;9.70;99.90;;;;;;6314935;22;20002;-91
2022/12/28 22:37:55;;;;;;;353.80;104.78;;;9.70;99.90;;;;;;6313790;22;20018;-91
2022/12/28 22:40:22;;;;;;;294.92;97.53;;;9.60;99.90;;;;;;6313351;22;20087;-92
2022/12/28 22:42:50;;;;;;;205.88;81.43;;;9.60;99.90;;;;;;6313825;22;20086;-90
2022/12/28 22:45:20;;;;;;;316.40;92.07;;;9.60;99.90;;;;;;6313788;22;20013;-92
2022/12/28 22:47:48;;;;;;;344.40;98.82;;;9.50;99.90;;;;;;6313869;22;20336;-91
2022/12/28 22:50:17;;;;;;;613.60;130.70;;;9.50;99.90;;;;;;6313916;22;20006;-92
2022/12/28 22:52:44;;;;;;;425.23;116.35;;;9.40;99.90;;;;;;6314464;22;20007;-91
2022/12/28 22:55:12;;;;;;;451.15;105.95;;;9.30;99.90;;;;;;6313997;22;20002;-93
2022/12/28 22:57:38;;;;;;;471.80;99.07;;;9.30;99.90;;;;;;6313691;22;20026;-91
2022/12/28 23:00:11;;;;;;;323.85;87.95;;;9.20;99.90;;;;;;6313785;22;20120;-89
2022/12/28 23:02:38;;;;;;;435.35;110.15;;;9.20;99.90;;;;;;6314747;22;20431;-90
2022/12/28 23:05:07;;;;;;;416.15;117.80;;;9.10;99.90;;;;;;6313271;22;20348;-91
2022/12/28 23:07:35;;;;;;;375.88;115.75;;;9.20;99.90;;;;;;6313580;22;20522;-93
2022/12/28 23:10:01;;;;;;;258.60;98.97;;;9.20;99.90;;;;;;6313468;22;20006;-92
2022/12/28 23:12:31;;;;;;;295.95;111.25;;;9.20;99.90;;;;;;6314189;22;20003;-92
2022/12/28 23:15:18;;;;;;;227.95;95.88;;;9.20;99.90;;;;;;6313582;22;20044;-92
2022/12/28 23:17:46;;;;;;;188.50;82.70;;;9.20;99.90;;;;;;6313292;22;20071;-91
2022/12/28 23:28:27;;;;;;;182.98;83.72;;;9.20;99.90;;;;;;6339211;22;20007;-93
2022/12/28 23:30:55;;;;;;;197.95;85.25;;;9.20;99.90;;;;;;6313119;22;20006;-91
2022/12/28 23:33:22;;;;;;;175.23;81.78;;;9.10;99.90;;;;;;6313050;22;20006;-92
2022/12/28 23:35:49;;;;;;;183.20;83.85;;;9.00;99.90;;;;;;6313116;22;20037;-89
2022/12/28 23:38:15;;;;;;;191.15;83.05;;;9.10;99.90;;;;;;6312738;22;20006;-92
2022/12/28 23:40:42;;;;;;;164.63;78.40;;;9.00;99.90;;;;;;6312820;22;20025;-90
2022/12/28 23:43:09;;;;;;;151.48;72.90;;;8.90;99.90;;;;;;6339331;22;19998;-92
2022/12/28 23:45:36;;;;;;;146.93;73.53;;;8.80;99.90;;;;;;6313092;22;20003;-89
2022/12/28 23:48:04;;;;;;;150.38;74.32;;;8.70;99.90;;;;;;6313150;22;20014;-93
2022/12/28 23:50:31;;;;;;;164.30;78.03;;;8.60;99.90;;;;;;6313008;22;20003;-92
2022/12/28 23:52:58;;;;;;;168.73;78.90;;;8.60;99.90;;;;;;6313212;22;20007;-92
2022/12/28 23:55:24;;;;;;;149.80;72.85;;;8.60;99.90;;;;;;6312927;22;20007;-92
2022/12/28 23:57:51;;;;;;;126.28;65.25;;;8.50;99.90;;;;;;6313057;22;20336;-92
